Ora Direzione Vento Velocita' Vento Media Vento Raffica Max. Temperatura Wind Chill Pioggia Pressione
08:14:23.093 °(E)3.7 Kts4.0 Kts7.2 Kts17.7 °C3.7 °C0.0 mm674.5 Hpa
07:52:26.063 °(ENE)0.0 Kts0.0 Kts7.2 Kts16.9 °C0.0 °C0.0 mm673.7 Hpa
07:32:52.052 °(NE)2.1 Kts1.0 Kts7.2 Kts16.4 °C2.1 °C0.0 mm673.2 Hpa
07:13:20.087 °(E)0.0 Kts0.0 Kts7.2 Kts16.3 °C0.0 °C0.0 mm673.0 Hpa
06:53:42.068 °(ENE)0.0 Kts0.0 Kts7.2 Kts16.3 °C0.0 °C0.0 mm673.0 Hpa
06:33:53.084 °(E)1.9 Kts1.7 Kts7.2 Kts16.6 °C1.9 °C0.0 mm673.4 Hpa
06:14:12.071 °(ENE)0.0 Kts0.0 Kts7.2 Kts17.2 °C0.0 °C0.0 mm674.0 Hpa
05:54:18.065 °(ENE)3.3 Kts2.6 Kts7.2 Kts17.5 °C3.3 °C0.0 mm674.3 Hpa
05:32:26.098 °(E)4.9 Kts3.6 Kts7.2 Kts17.8 °C4.9 °C0.0 mm674.6 Hpa
05:12:42.078 °(ENE)3.3 Kts3.5 Kts7.2 Kts18.1 °C3.3 °C0.0 mm675.0 Hpa
04:53:02.063 °(ENE)3.2 Kts3.3 Kts7.2 Kts18.3 °C3.2 °C0.0 mm675.2 Hpa
04:33:25.088 °(E)4.1 Kts5.0 Kts7.2 Kts18.5 °C4.1 °C0.0 mm675.5 Hpa
04:13:35.089 °(E)3.9 Kts3.9 Kts6.7 Kts18.6 °C3.9 °C0.0 mm675.5 Hpa
03:53:53.079 °(E)4.0 Kts3.7 Kts6.7 Kts18.5 °C4.0 °C0.0 mm675.4 Hpa
03:34:08.076 °(ENE)4.7 Kts4.1 Kts6.7 Kts18.5 °C4.7 °C0.0 mm675.4 Hpa
03:12:57.080 °(E)4.1 Kts4.6 Kts6.7 Kts18.5 °C4.1 °C0.0 mm675.3 Hpa
02:53:52.062 °(ENE)3.1 Kts2.7 Kts5.5 Kts18.6 °C3.1 °C0.0 mm675.4 Hpa
02:32:39.083 °(E)3.5 Kts3.3 Kts5.5 Kts18.9 °C3.5 °C0.0 mm675.8 Hpa
02:13:42.088 °(E)4.1 Kts3.2 Kts5.5 Kts19.0 °C4.1 °C0.0 mm675.8 Hpa
01:54:08.077 °(ENE)2.3 Kts3.1 Kts5.5 Kts19.1 °C2.3 °C0.0 mm675.9 Hpa